Terminal Aerodrome Forecast
Issued by NWS

Home | Current Version | Previous Version | Graphics & Text | Print | Product List | Glossary On
Versions: 1 2 3 4 5 6 7 8 9 10 11 12 13 14 15 16 17 18 19
982
FTUS43 KICT 271134
TAFSLN
TAF
KSLN 271134Z 2712/2812 36008KT 6SM BR OVC006
     FM271300 35009KT P6SM OVC008
     FM271600 36008KT P6SM OVC012
     FM271900 01005KT P6SM BKN020
     FM272200 03005KT P6SM SCT040
     FM280300 09005KT P6SM SCT200=

USA.gov is the U.S. government's official web portal to all federal, state and local government web resources and services.